Time;durP1;ratioP1;P1;durP2;ratioP2;P2;SDS_P1;SDS_P2;PMS_P1;PMS_P2;Temp;Humidity;BMP_temperature;BMP_pressure;BME280_temperature;BME280_humidity;BME280_pressure;Samples;Min_cycle;Max_cycle;Signal;HPM_P1;HPM_P2
2023/03/22 00:01:29;;;;;;;4.97;4.57;;;;;;;7.96;100.00;96826.09;4976781;28;20803;-66
2023/03/22 00:03:57;;;;;;;5.20;4.70;;;;;;;7.97;100.00;96827.72;4958503;28;20229;-66
2023/03/22 00:06:25;;;;;;;5.27;4.90;;;;;;;7.93;100.00;96840.44;4974361;28;20245;-65
2023/03/22 00:08:53;;;;;;;5.27;4.93;;;;;;;7.91;100.00;96833.72;4976960;28;20235;-66
2023/03/22 00:11:24;;;;;;;5.43;5.03;;;;;;;7.92;100.00;96830.09;4931751;28;20255;-65
2023/03/22 00:13:52;;;;;;;6.07;5.63;;;;;;;7.86;100.00;96834.22;4964597;28;20197;-65
2023/03/22 00:16:21;;;;;;;6.00;5.50;;;;;;;7.77;100.00;96833.50;4971753;28;20323;-66
2023/03/22 00:18:49;;;;;;;8.03;6.27;;;;;;;7.78;100.00;96835.13;4952372;28;20233;-66
2023/03/22 00:21:18;;;;;;;6.40;5.80;;;;;;;7.76;100.00;96831.81;4972303;28;20405;-65
2023/03/22 00:23:45;;;;;;;6.67;5.43;;;;;;;7.76;100.00;96839.72;4977451;28;20229;-65
2023/03/22 00:26:14;;;;;;;6.17;5.67;;;;;;;7.72;100.00;96829.72;4930574;28;20435;-65
2023/03/22 00:28:42;;;;;;;6.40;5.80;;;;;;;7.70;100.00;96835.16;4981338;28;20295;-65
2023/03/22 00:31:10;;;;;;;8.87;7.20;;;;;;;7.69;100.00;96830.88;4953728;28;20209;-65
2023/03/22 00:33:39;;;;;;;7.90;7.20;;;;;;;7.71;100.00;96828.88;4978226;28;20204;-66
2023/03/22 00:36:08;;;;;;;9.33;6.93;;;;;;;7.72;100.00;96827.91;4958652;28;20334;-64
2023/03/22 00:38:37;;;;;;;9.13;7.80;;;;;;;7.77;100.00;96822.94;4984748;28;20243;-65
2023/03/22 00:41:12;;;;;;;8.17;7.37;;;;;;;7.80;100.00;96822.59;4926231;28;20915;-64
2023/03/22 00:43:39;;;;;;;12.20;8.43;;;;;;;7.83;100.00;96821.41;4985201;28;20225;-65
2023/03/22 00:46:07;;;;;;;9.70;7.90;;;;;;;7.80;100.00;96817.31;4950268;28;22065;-65
2023/03/22 00:48:35;;;;;;;7.83;7.10;;;;;;;7.79;100.00;96822.75;4989009;28;20799;-64
2023/03/22 00:51:05;;;;;;;7.70;7.00;;;;;;;7.77;100.00;96827.38;4958882;28;20213;-65
2023/03/22 00:53:34;;;;;;;7.07;6.57;;;;;;;7.79;100.00;96823.59;4979846;28;20245;-66
2023/03/22 00:56:02;;;;;;;6.80;6.10;;;;;;;7.78;100.00;96819.31;4929114;28;21213;-66
2023/03/22 00:58:29;;;;;;;6.70;6.20;;;;;;;7.84;100.00;96812.50;4986436;28;20670;-65
2023/03/22 01:00:57;;;;;;;6.60;6.00;;;;;;;7.78;100.00;96821.09;4979468;28;20215;-66
2023/03/22 01:03:24;;;;;;;6.97;6.40;;;;;;;7.70;100.00;96815.91;4957710;28;20229;-64
2023/03/22 01:05:54;;;;;;;7.37;6.67;;;;;;;7.67;100.00;96811.78;4962785;28;20670;-66
2023/03/22 01:08:23;;;;;;;6.77;6.03;;;;;;;7.68;100.00;96810.78;4977396;28;20957;-64
2023/03/22 01:10:51;;;;;;;6.93;6.33;;;;;;;7.62;100.00;96809.69;4977552;28;20562;-66
2023/03/22 01:13:18;;;;;;;6.37;5.77;;;;;;;7.53;100.00;96805.44;4931168;28;20496;-66
2023/03/22 01:15:50;;;;;;;6.03;5.60;;;;;;;7.42;100.00;96801.41;4982980;28;20720;-66
2023/03/22 01:18:17;;;;;;;5.93;5.53;;;;;;;7.42;100.00;96793.50;4953736;28;20675;-65
2023/03/22 01:20:45;;;;;;;6.10;5.60;;;;;;;7.43;100.00;96792.50;4962059;28;20209;-66
2023/03/22 01:23:12;;;;;;;5.83;5.30;;;;;;;7.46;100.00;96788.66;4978239;28;20956;-64
2023/03/22 01:25:41;;;;;;;6.70;6.10;;;;;;;7.42;100.00;96793.50;4979895;28;20228;-64
2023/03/22 01:28:09;;;;;;;6.10;5.50;;;;;;;7.36;100.00;96783.63;4929842;28;20940;-65
2023/03/22 01:30:38;;;;;;;6.93;5.60;;;;;;;7.28;100.00;96787.13;4985378;28;20472;-66
2023/03/22 01:33:07;;;;;;;5.77;5.37;;;;;;;7.19;100.00;96793.41;4956311;28;20414;-65
2023/03/22 01:35:35;;;;;;;6.20;5.70;;;;;;;7.10;100.00;96790.03;4959294;28;20425;-65
2023/03/22 01:38:03;;;;;;;5.87;5.37;;;;;;;7.03;100.00;96791.69;4974697;28;20247;-65
2023/03/22 01:40:32;;;;;;;5.80;5.40;;;;;;;6.97;100.00;96793.19;4976861;28;20211;-65
2023/03/22 01:43:01;;;;;;;6.53;5.97;;;;;;;6.95;100.00;96784.66;4929811;28;20478;-65
2023/03/22 01:45:41;;;;;;;6.33;5.90;;;;;;;6.98;100.00;96789.56;4978278;28;20743;-65
2023/03/22 01:48:14;;;;;;;6.70;6.00;;;;;;;7.00;100.00;96792.00;4956963;28;21086;-64
2023/03/22 01:50:46;;;;;;;6.47;5.93;;;;;;;6.98;100.00;96786.09;4980197;28;20359;-65
2023/03/22 01:53:14;;;;;;;6.50;5.90;;;;;;;6.98;100.00;96789.56;4966585;28;20609;-65
2023/03/22 01:55:42;;;;;;;6.07;5.63;;;;;;;7.00;100.00;96786.75;4985815;28;20204;-66
2023/03/22 01:58:11;;;;;;;6.37;5.93;;;;;;;7.00;100.00;96790.22;4929319;28;20706;-65
2023/03/22 02:00:39;;;;;;;6.80;6.20;;;;;;;6.98;100.00;96779.03;4982961;28;20603;-65
2023/03/22 02:03:07;;;;;;;6.67;6.07;;;;;;;7.00;100.00;96777.03;4957475;28;20890;-65
2023/03/22 02:05:35;;;;;;;6.03;5.43;;;;;;;7.03;100.00;96774.06;4980584;28;20294;-64
2023/03/22 02:08:03;;;;;;;5.90;5.50;;;;;;;7.04;100.00;96777.53;4957992;28;20246;-65
2023/03/22 02:10:31;;;;;;;6.23;5.73;;;;;;;6.99;100.00;96775.41;4983564;28;20627;-65
2023/03/22 02:13:13;;;;;;;5.47;5.07;;;;;;;7.00;100.00;96778.84;4975418;28;20640;-66
2023/03/22 02:15:45;;;;;;;6.27;5.70;;;;;;;6.99;100.00;96766.66;4928623;28;20212;-65
2023/03/22 02:18:25;;;;;;;5.27;4.90;;;;;;;6.90;100.00;96764.06;4977597;28;20946;-65
2023/03/22 02:21:33;;;;;;;5.80;5.20;;;;;;;6.86;100.00;96768.03;4927420;28;20227;-65
2023/03/22 02:24:13;;;;;;;5.70;5.20;;;;;;;6.84;100.00;96764.75;4961507;28;21059;-65
2023/03/22 02:27:06;;;;;;;5.67;5.27;;;;;;;6.87;100.00;96772.31;4976804;28;20585;-65
2023/03/22 02:29:43;;;;;;;5.97;5.47;;;;;;;6.91;100.00;96763.09;4939501;28;20204;-65
2023/03/22 02:32:26;;;;;;;6.10;5.60;;;;;;;6.85;100.00;96750.59;4980231;28;20204;-65
2023/03/22 02:35:08;;;;;;;8.07;5.37;;;;;;;6.83;100.00;96752.59;4955599;28;23272;-66
2023/03/22 02:37:48;;;;;;;5.60;5.13;;;;;;;6.86;100.00;96746.97;4964756;28;20739;-65
2023/03/22 02:40:21;;;;;;;6.20;5.70;;;;;;;6.90;100.00;96748.28;4974529;28;20753;-65
2023/03/22 02:42:56;;;;;;;5.73;5.37;;;;;;;6.91;100.00;96757.00;4979013;28;20209;-64
2023/03/22 02:45:31;;;;;;;6.57;5.60;;;;;;;6.88;100.00;96755.53;4968528;28;20641;-65
2023/03/22 02:48:05;;;;;;;6.43;5.40;;;;;;;6.86;100.00;96752.25;4969071;28;20232;-64
2023/03/22 02:50:38;;;;;;;5.93;5.33;;;;;;;6.87;100.00;96753.06;4958026;28;20209;-65
2023/03/22 02:53:11;;;;;;;6.07;5.63;;;;;;;6.87;100.00;96751.25;4960036;28;20212;-65
2023/03/22 02:55:44;;;;;;;6.23;5.73;;;;;;;6.80;100.00;96745.03;4975258;28;20633;-65
2023/03/22 02:58:15;;;;;;;6.10;5.70;;;;;;;6.85;100.00;96749.78;4977518;28;20748;-65
2023/03/22 03:00:43;;;;;;;6.37;5.87;;;;;;;6.86;100.00;96746.16;4927208;28;20208;-63
2023/03/22 03:03:17;;;;;;;6.63;6.13;;;;;;;6.83;100.00;96744.69;4981260;28;20402;-65
2023/03/22 03:05:45;;;;;;;5.60;5.20;;;;;;;6.78;100.00;96741.75;4950693;28;20794;-65
2023/03/22 03:08:14;;;;;;;6.07;5.53;;;;;;;6.71;100.00;96743.44;4980215;28;20595;-64
2023/03/22 03:10:43;;;;;;;5.70;5.30;;;;;;;6.65;100.00;96740.50;4959281;28;20216;-64
2023/03/22 03:13:12;;;;;;;6.07;5.07;;;;;;;6.58;100.00;96749.22;4973937;28;20201;-64
2023/03/22 03:15:41;;;;;;;5.93;5.30;;;;;;;6.46;100.00;96748.75;4926111;28;20697;-66
2023/03/22 03:18:18;;;;;;;5.77;5.47;;;;;;;6.37;100.00;96756.69;4982016;28;20683;-64
2023/03/22 03:20:56;;;;;;;9.17;5.77;;;;;;;6.29;100.00;96750.59;4947547;28;21016;-65
2023/03/22 03:23:28;;;;;;;5.60;5.20;;;;;;;6.16;100.00;96756.38;4974451;28;21133;-65
2023/03/22 03:26:03;;;;;;;5.67;5.20;;;;;;;6.07;100.00;96750.31;4940762;28;20301;-65
2023/03/22 03:28:38;;;;;;;5.67;5.27;;;;;;;6.02;100.00;96749.97;4977620;28;20224;-65
2023/03/22 03:31:21;;;;;;;6.27;5.77;;;;;;;6.02;100.00;96763.97;4976507;28;20505;-65
2023/03/22 03:33:57;;;;;;;6.63;6.13;;;;;;;6.04;100.00;96756.72;4943061;28;20430;-66
2023/03/22 03:36:26;;;;;;;6.30;5.80;;;;;;;6.10;100.00;96759.66;4952960;28;20223;-65
2023/03/22 03:38:54;;;;;;;5.93;5.60;;;;;;;6.10;100.00;96754.41;4977806;28;20382;-64
2023/03/22 03:41:25;;;;;;;6.23;5.67;;;;;;;6.05;100.00;96753.09;4961707;28;20502;-66
2023/03/22 03:43:54;;;;;;;5.83;5.43;;;;;;;5.93;100.00;96762.28;4981063;28;20637;-67
2023/03/22 03:46:23;;;;;;;6.30;5.60;;;;;;;5.76;100.00;96759.66;4972018;28;20240;-68
2023/03/22 03:48:51;;;;;;;5.30;4.80;;;;;;;5.59;100.00;96765.88;4927449;28;20979;-66
2023/03/22 03:51:19;;;;;;;5.70;5.13;;;;;;;5.50;100.00;96767.69;4950634;28;20465;-65
2023/03/22 03:53:46;;;;;;;6.00;5.60;;;;;;;5.42;100.00;96771.09;4959912;28;20702;-65
2023/03/22 03:56:14;;;;;;;5.70;5.30;;;;;;;5.42;100.00;96771.09;4959320;28;20406;-66
2023/03/22 03:58:43;;;;;;;6.87;6.27;;;;;;;5.41;100.00;96776.53;4985205;28;20239;-65
2023/03/22 04:01:11;;;;;;;6.20;5.70;;;;;;;5.36;100.00;96769.97;4976701;28;20212;-66
2023/03/22 04:03:38;;;;;;;6.77;6.17;;;;;;;5.36;100.00;96762.09;4898631;28;20746;-66
2023/03/22 04:06:07;;;;;;;6.77;6.37;;;;;;;5.34;100.00;96766.69;4980784;28;20738;-65
2023/03/22 04:08:35;;;;;;;9.40;8.60;;;;;;;5.30;100.00;96761.91;4952454;28;20241;-66
2023/03/22 04:11:02;;;;;;;7.03;6.40;;;;;;;5.26;100.00;96760.56;4933094;28;20310;-65
2023/03/22 04:13:30;;;;;;;7.53;6.20;;;;;;;5.28;100.00;96772.56;4974404;28;20212;-66
2023/03/22 04:16:01;;;;;;;6.53;6.03;;;;;;;5.22;100.00;96760.06;4977286;28;20594;-66
2023/03/22 04:18:29;;;;;;;6.50;6.10;;;;;;;5.22;100.00;96770.56;4930652;28;20233;-66
2023/03/22 04:20:56;;;;;;;7.13;6.63;;;;;;;5.22;100.00;96779.28;4983845;28;20200;-66
2023/03/22 04:23:24;;;;;;;6.60;6.20;;;;;;;5.23;100.00;96772.22;4958030;28;20750;-66
2023/03/22 04:25:53;;;;;;;6.43;5.97;;;;;;;5.26;100.00;96771.88;4982518;28;20310;-66
2023/03/22 04:28:20;;;;;;;6.53;6.03;;;;;;;5.17;100.00;96772.84;4963025;28;20229;-65
2023/03/22 04:30:50;;;;;;;6.50;6.00;;;;;;;5.11;100.00;96769.06;4978845;28;20198;-65
2023/03/22 04:33:21;;;;;;;6.27;5.87;;;;;;;5.13;100.00;96767.13;4949634;28;20205;-64
2023/03/22 04:35:55;;;;;;;8.43;6.37;;;;;;;5.07;100.00;96768.56;4987365;28;20225;-65
2023/03/22 04:38:24;;;;;;;6.90;6.40;;;;;;;5.04;100.00;96766.25;4958118;28;20232;-65
2023/03/22 04:40:51;;;;;;;7.43;6.50;;;;;;;5.01;100.00;96768.38;4976047;28;20213;-67
2023/03/22 04:43:19;;;;;;;5.90;5.50;;;;;;;4.97;100.00;96764.41;4965598;28;20276;-66
2023/03/22 04:45:47;;;;;;;5.60;5.13;;;;;;;4.89;100.00;96776.53;4980185;28;20220;-67
2023/03/22 04:48:20;;;;;;;6.43;5.90;;;;;;;4.85;100.00;96777.84;4956870;28;20228;-67
2023/03/22 04:50:52;;;;;;;6.50;6.03;;;;;;;4.86;100.00;96765.53;4982111;28;20203;-67
2023/03/22 04:53:25;;;;;;;6.90;6.27;;;;;;;4.83;100.00;96768.47;4959432;28;20222;-68
2023/03/22 04:55:55;;;;;;;6.83;6.33;;;;;;;4.82;100.00;96765.03;4990287;28;20726;-65
2023/03/22 04:58:23;;;;;;;7.57;6.10;;;;;;;4.85;100.00;96769.97;4965653;28;20663;-65
2023/03/22 05:00:52;;;;;;;6.60;6.10;;;;;;;4.80;100.00;96766.16;4982292;28;21091;-65
2023/03/22 05:03:20;;;;;;;7.03;6.43;;;;;;;4.76;100.00;96765.66;4986179;28;20205;-66
2023/03/22 05:05:53;;;;;;;6.80;6.10;;;;;;;4.72;100.00;96774.81;4950826;28;20749;-66
2023/03/22 05:08:21;;;;;;;6.67;6.10;;;;;;;4.70;100.00;96769.75;4955153;28;20728;-65
2023/03/22 05:10:49;;;;;;;7.43;6.63;;;;;;;4.70;100.00;96780.22;4992093;28;20208;-66
2023/03/22 05:13:17;;;;;;;7.50;6.90;;;;;;;4.71;100.00;96784.50;4964898;28;20203;-66
2023/03/22 05:15:46;;;;;;;7.07;6.57;;;;;;;4.70;100.00;96782.03;4987518;28;20240;-66
2023/03/22 05:18:14;;;;;;;8.23;7.43;;;;;;;4.71;100.00;96786.28;4983762;28;20239;-66
2023/03/22 05:20:42;;;;;;;8.00;7.40;;;;;;;4.73;100.00;96779.09;4954356;28;20209;-66
2023/03/22 05:23:12;;;;;;;9.67;8.57;;;;;;;4.77;100.00;96786.50;4975310;28;20204;-67
2023/03/22 05:25:43;;;;;;;8.40;7.70;;;;;;;4.79;100.00;96778.47;4984443;28;20225;-66
2023/03/22 05:28:13;;;;;;;9.40;8.70;;;;;;;4.85;100.00;96772.59;4984217;28;20274;-66
2023/03/22 05:30:41;;;;;;;9.53;8.83;;;;;;;4.89;100.00;96780.97;4961155;28;20200;-66
2023/03/22 05:33:09;;;;;;;10.10;9.27;;;;;;;4.90;100.00;96780.81;4984912;28;20213;-66
2023/03/22 05:35:39;;;;;;;10.13;9.17;;;;;;;4.95;100.00;96779.50;4944211;28;20217;-66
2023/03/22 05:38:07;;;;;;;10.80;9.87;;;;;;;4.98;100.00;96779.19;4973765;28;20235;-66
2023/03/22 05:40:36;;;;;;;10.73;9.83;;;;;;;5.01;100.00;96777.09;4971266;28;20246;-66
2023/03/22 05:43:05;;;;;;;11.37;10.27;;;;;;;5.06;100.00;96774.81;4988993;28;20204;-66
2023/03/22 05:45:32;;;;;;;10.33;9.53;;;;;;;5.12;100.00;96773.34;4959446;28;20228;-65
2023/03/22 05:48:00;;;;;;;10.57;9.77;;;;;;;5.21;100.00;96774.19;4989923;28;20275;-65
2023/03/22 05:50:28;;;;;;;10.40;9.50;;;;;;;5.29;100.00;96778.63;4983189;28;20207;-65
2023/03/22 05:52:56;;;;;;;10.33;9.40;;;;;;;5.37;100.00;96776.03;4948502;28;20232;-65
2023/03/22 05:55:23;;;;;;;11.07;9.97;;;;;;;5.47;100.00;96779.31;4958357;28;20216;-65
2023/03/22 05:57:53;;;;;;;11.60;10.63;;;;;;;5.53;100.00;96769.97;4987051;28;20248;-65
2023/03/22 06:00:22;;;;;;;12.00;10.93;;;;;;;5.61;100.00;96766.56;4979155;28;20200;-66
2023/03/22 06:02:55;;;;;;;10.67;9.77;;;;;;;5.70;100.00;96770.81;4978461;28;20590;-65
2023/03/22 06:05:23;;;;;;;10.57;9.63;;;;;;;5.79;100.00;96766.41;4980631;28;20524;-66
2023/03/22 06:07:50;;;;;;;11.50;10.37;;;;;;;5.85;100.00;96771.00;4932560;28;20550;-65
2023/03/22 06:10:18;;;;;;;11.13;10.20;;;;;;;5.93;100.00;96771.00;4963665;28;20624;-67
2023/03/22 06:12:46;;;;;;;13.23;9.27;;;;;;;6.05;100.00;96775.94;4980568;28;20264;-66
2023/03/22 06:15:15;;;;;;;11.20;10.10;;;;;;;6.17;100.00;96768.53;4980737;28;20644;-67
2023/03/22 06:17:42;;;;;;;10.43;9.53;;;;;;;6.28;100.00;96770.84;4986965;28;20712;-66
2023/03/22 06:20:13;;;;;;;10.60;9.70;;;;;;;6.35;100.00;96769.19;4985061;28;20222;-66
2023/03/22 06:22:41;;;;;;;10.47;9.43;;;;;;;6.46;100.00;96768.03;4974554;28;20578;-67
2023/03/22 06:25:10;;;;;;;11.43;10.37;;;;;;;6.56;100.00;96773.06;4929767;28;20208;-66
2023/03/22 06:27:37;;;;;;;10.10;9.17;;;;;;;6.70;100.00;96766.28;4974388;28;20233;-65
2023/03/22 06:30:06;;;;;;;11.03;9.90;;;;;;;6.88;100.00;96765.25;4980699;28;20231;-67
2023/03/22 06:32:35;;;;;;;11.00;9.83;;;;;;;6.94;100.00;96762.75;4981724;28;20416;-66
2023/03/22 06:35:03;;;;;;;10.90;10.00;;;;;;;7.00;100.00;96763.88;4985231;28;20231;-67
2023/03/22 06:37:31;;;;;;;11.87;10.70;;;;;;;7.04;100.00;96759.09;4969402;28;20358;-66
2023/03/22 06:39:58;;;;;;;11.40;10.40;;;;;;;7.05;100.00;96751.00;4937302;28;20216;-66
2023/03/22 06:42:26;;;;;;;10.33;9.50;;;;;;;7.07;100.00;96756.13;4957878;28;20417;-65
2023/03/22 06:44:54;;;;;;;10.27;9.47;;;;;;;7.07;100.00;96754.28;4982310;28;20205;-66
2023/03/22 06:47:21;;;;;;;9.67;8.90;;;;;;;7.19;100.00;96762.63;4971777;28;20803;-66
2023/03/22 06:49:50;;;;;;;9.90;9.10;;;;;;;7.28;100.00;96754.69;4988449;28;20200;-65
2023/03/22 06:52:18;;;;;;;10.77;9.77;;;;;;;7.28;100.00;96754.69;4971944;28;20237;-67
2023/03/22 06:54:45;;;;;;;10.57;9.57;;;;;;;7.27;100.00;96761.78;4976926;28;20684;-65
2023/03/22 06:57:13;;;;;;;11.80;9.77;;;;;;;7.29;100.00;96764.22;4909735;28;20739;-67
2023/03/22 06:59:41;;;;;;;10.93;10.10;;;;;;;7.31;100.00;96756.97;4983319;28;20665;-66
2023/03/22 07:02:10;;;;;;;19.23;16.80;;;;;;;7.31;100.00;96764.88;4987950;28;20200;-66
2023/03/22 07:04:38;;;;;;;16.40;14.80;;;;;;;7.37;100.00;96764.16;4983358;28;20488;-65
2023/03/22 07:07:07;;;;;;;13.77;12.37;;;;;;;7.44;100.00;96756.41;4983435;28;20239;-67
2023/03/22 07:09:34;;;;;;;11.40;10.27;;;;;;;7.56;100.00;96756.81;4986710;28;20659;-66
2023/03/22 07:12:03;;;;;;;11.77;10.77;;;;;;;7.65;100.00;96746.03;4937105;28;20589;-66
2023/03/22 07:14:32;;;;;;;10.60;9.50;;;;;;;7.82;100.00;96740.63;4966177;28;21110;-66
2023/03/22 07:17:00;;;;;;;10.27;9.37;;;;;;;7.87;100.00;96751.47;4983719;28;20478;-66
2023/03/22 07:19:28;;;;;;;10.00;9.20;;;;;;;8.04;100.00;96751.34;4980829;28;20205;-66
2023/03/22 07:21:55;;;;;;;9.60;8.70;;;;;;;8.22;100.00;96756.31;4981225;28;20209;-66
2023/03/22 07:24:24;;;;;;;10.60;8.97;;;;;;;8.31;100.00;96744.66;4982098;28;20208;-65
2023/03/22 07:26:52;;;;;;;10.13;9.03;;;;;;;8.32;100.00;96746.28;4932508;28;20223;-66
2023/03/22 07:29:20;;;;;;;10.13;9.23;;;;;;;8.48;100.00;96749.75;4954066;28;20237;-68
2023/03/22 07:31:47;;;;;;;10.70;9.80;;;;;;;8.66;100.00;96750.25;4981897;28;20209;-65
2023/03/22 07:34:16;;;;;;;10.50;9.70;;;;;;;8.88;100.00;96749.53;4979307;28;20827;-66
2023/03/22 07:36:43;;;;;;;11.70;10.40;;;;;;;9.01;100.00;96743.59;4975556;28;20225;-65
2023/03/22 07:39:11;;;;;;;11.97;10.97;;;;;;;9.12;100.00;96740.47;4977352;28;20768;-67
2023/03/22 07:41:40;;;;;;;10.60;9.67;;;;;;;9.04;100.00;96733.44;4986753;28;20737;-66
2023/03/22 07:44:07;;;;;;;11.90;10.90;;;;;;;9.14;100.00;96737.66;4911103;28;20246;-66
2023/03/22 07:46:44;;;;;;;12.67;11.67;;;;;;;9.35;100.00;96740.31;4987858;28;20230;-65
2023/03/22 07:49:12;;;;;;;13.30;12.10;;;;;;;9.37;100.00;96738.28;4983903;28;20226;-66
2023/03/22 07:51:40;;;;;;;11.80;10.80;;;;;;;9.61;100.00;96732.81;4980638;28;20553;-65
2023/03/22 07:54:08;;;;;;;12.60;11.50;;;;;;;9.85;100.00;96740.38;4989323;28;20204;-66
2023/03/22 07:56:36;;;;;;;11.77;10.77;;;;;;;10.06;100.00;96741.38;4986931;28;20411;-65
2023/03/22 07:59:05;;;;;;;12.40;11.40;;;;;;;10.17;100.00;96732.06;4934109;28;20251;-66
2023/03/22 08:01:33;;;;;;;11.77;10.77;;;;;;;10.13;100.00;96730.84;4972027;28;21102;-65
2023/03/22 08:04:01;;;;;;;12.33;11.07;;;;;;;10.33;100.00;96738.13;4991924;28;20216;-65
2023/03/22 08:06:31;;;;;;;11.47;10.60;;;;;;;10.44;100.00;96726.19;4977754;28;20436;-65
2023/03/22 08:08:59;;;;;;;12.20;11.20;;;;;;;10.61;100.00;96732.81;4988033;28;20890;-65
2023/03/22 08:11:26;;;;;;;12.57;11.37;;;;;;;10.59;99.94;96734.00;4983148;28;20705;-65
2023/03/22 08:13:54;;;;;;;12.07;10.97;;;;;;;10.72;99.48;96726.16;4937697;28;20723;-66
2023/03/22 08:16:23;;;;;;;13.23;12.13;;;;;;;10.77;99.02;96730.84;4962665;28;20676;-67
2023/03/22 08:18:50;;;;;;;11.90;10.93;;;;;;;10.86;97.45;96725.19;4994192;28;21126;-65
2023/03/22 08:21:18;;;;;;;12.90;11.60;;;;;;;10.97;97.66;96734.41;4980258;28;20213;-66
2023/03/22 08:23:46;;;;;;;12.30;11.20;;;;;;;11.15;96.04;96728.56;4988664;28;20208;-66
2023/03/22 08:26:16;;;;;;;13.67;12.37;;;;;;;11.43;94.94;96726.81;4989799;28;20224;-66
2023/03/22 08:28:44;;;;;;;14.37;12.97;;;;;;;11.55;92.69;96732.34;4934726;28;20301;-66
2023/03/22 08:31:13;;;;;;;12.73;11.57;;;;;;;11.58;92.47;96710.72;4962481;28;20212;-66
2023/03/22 08:33:43;;;;;;;11.87;10.97;;;;;;;11.68;91.65;96716.44;4985980;28;20746;-65
2023/03/22 08:36:13;;;;;;;12.87;11.77;;;;;;;11.72;91.34;96722.16;4982313;28;20723;-68
2023/03/22 08:38:43;;;;;;;11.83;10.87;;;;;;;11.68;90.36;96718.28;4984079;28;21002;-65
2023/03/22 08:41:11;;;;;;;12.57;11.40;;;;;;;11.88;89.35;96715.66;4991222;28;20200;-66
2023/03/22 08:43:39;;;;;;;13.40;11.00;;;;;;;12.03;88.38;96712.81;4930145;28;21592;-66
2023/03/22 08:46:07;;;;;;;14.83;11.37;;;;;;;12.04;87.11;96708.31;4988708;28;20380;-64
2023/03/22 08:48:36;;;;;;;11.97;10.87;;;;;;;12.18;87.18;96709.97;4969920;28;20621;-64
2023/03/22 08:51:06;;;;;;;11.77;10.87;;;;;;;12.02;86.83;96711.19;4993973;28;20322;-66
2023/03/22 08:53:34;;;;;;;12.07;11.10;;;;;;;12.38;87.45;96712.59;4984847;28;20408;-64
2023/03/22 08:56:02;;;;;;;11.97;10.93;;;;;;;12.53;86.14;96701.72;4994735;28;20209;-65
2023/03/22 08:58:30;;;;;;;11.50;10.30;;;;;;;12.68;84.66;96701.47;4979624;28;20588;-65
2023/03/22 09:00:57;;;;;;;11.00;10.20;;;;;;;12.81;83.68;96705.13;4933950;28;20362;-65
2023/03/22 09:03:25;;;;;;;12.40;11.20;;;;;;;12.86;81.75;96700.78;4952208;28;20624;-65
2023/03/22 09:05:53;;;;;;;13.23;11.93;;;;;;;12.87;80.31;96701.63;4993411;28;20215;-65
2023/03/22 09:08:22;;;;;;;10.27;9.37;;;;;;;13.07;79.36;96695.38;4983503;28;20232;-65
2023/03/22 09:10:50;;;;;;;10.97;9.80;;;;;;;13.15;79.20;96693.31;4991442;28;20231;-64
2023/03/22 09:13:19;;;;;;;9.93;9.03;;;;;;;13.25;78.63;96692.84;4980696;28;20519;-66
2023/03/22 09:15:47;;;;;;;10.87;9.87;;;;;;;13.36;77.27;96691.38;4931870;28;20661;-65
2023/03/22 09:18:15;;;;;;;9.73;8.97;;;;;;;13.46;77.69;96694.41;4966160;28;20376;-66
2023/03/22 09:20:44;;;;;;;11.13;9.70;;;;;;;13.57;77.61;96684.91;4985977;28;20678;-65
2023/03/22 09:23:14;;;;;;;11.03;9.20;;;;;;;13.71;76.44;96674.16;4981856;28;20451;-65
2023/03/22 09:25:44;;;;;;;9.87;8.87;;;;;;;13.73;74.28;96675.59;4984707;28;20408;-68
2023/03/22 09:28:12;;;;;;;8.97;7.73;;;;;;;13.77;72.99;96681.28;4980982;28;20226;-67
2023/03/22 09:30:40;;;;;;;10.40;9.43;;;;;;;13.83;73.21;96671.63;4933022;28;20213;-68
2023/03/22 09:33:09;;;;;;;9.20;8.20;;;;;;;13.84;72.68;96673.25;4956252;28;20216;-67
2023/03/22 09:35:41;;;;;;;8.73;8.03;;;;;;;13.92;73.20;96680.16;4982749;28;20990;-68
2023/03/22 09:38:09;;;;;;;8.67;7.77;;;;;;;13.89;70.74;96668.06;4985864;28;20465;-67
2023/03/22 09:40:39;;;;;;;8.30;7.70;;;;;;;13.96;71.90;96663.50;4976690;28;20228;-67
2023/03/22 09:43:09;;;;;;;8.60;7.47;;;;;;;13.91;70.56;96667.88;4988677;28;20421;-67
2023/03/22 09:45:40;;;;;;;8.50;7.90;;;;;;;14.01;70.29;96652.22;4933428;28;20228;-67
2023/03/22 09:48:14;;;;;;;8.80;8.03;;;;;;;14.06;70.52;96660.34;4964707;28;20322;-67
2023/03/22 09:50:46;;;;;;;9.17;8.37;;;;;;;14.03;69.90;96656.28;4976411;28;20334;-68
2023/03/22 09:53:16;;;;;;;8.23;7.60;;;;;;;14.18;69.37;96663.13;4980071;28;20353;-67
2023/03/22 09:55:46;;;;;;;8.60;7.90;;;;;;;14.21;69.70;96656.53;4982819;28;20713;-67
2023/03/22 09:58:21;;;;;;;9.50;8.53;;;;;;;14.30;70.02;96655.22;4977509;28;20480;-67
2023/03/22 10:00:52;;;;;;;8.93;8.13;;;;;;;14.27;69.19;96648.47;4936480;28;20327;-67
2023/03/22 10:03:29;;;;;;;8.70;7.90;;;;;;;14.29;70.05;96646.38;4951077;28;20212;-67
2023/03/22 10:06:00;;;;;;;9.63;8.37;;;;;;;14.15;69.34;96637.72;4980105;28;20209;-66
2023/03/22 10:08:44;;;;;;;8.60;7.93;;;;;;;14.19;69.66;96646.91;4976676;28;21049;-67
2023/03/22 10:11:19;;;;;;;8.73;8.03;;;;;;;14.15;69.88;96639.59;4979699;28;20200;-67
2023/03/22 10:13:56;;;;;;;8.67;7.93;;;;;;;14.30;71.14;96636.56;4980606;28;20212;-67
2023/03/22 10:16:27;;;;;;;7.93;7.40;;;;;;;14.44;70.06;96637.25;4976991;28;20328;-66
2023/03/22 10:19:00;;;;;;;8.60;7.97;;;;;;;14.62;70.63;96631.09;4904322;28;20490;-67
2023/03/22 10:21:27;;;;;;;8.10;6.73;;;;;;;14.67;67.57;96636.56;4978340;28;20209;-67
2023/03/22 10:23:57;;;;;;;8.13;7.40;;;;;;;14.83;68.79;96635.16;4979143;28;20982;-66
2023/03/22 10:26:28;;;;;;;8.73;8.00;;;;;;;14.79;70.74;96633.16;4978815;28;20220;-67
2023/03/22 10:29:02;;;;;;;9.27;8.53;;;;;;;14.83;70.92;96629.00;4981980;28;20224;-67
2023/03/22 10:31:31;;;;;;;9.00;8.30;;;;;;;14.94;70.57;96628.22;4974341;28;20821;-66
2023/03/22 10:34:02;;;;;;;8.40;7.63;;;;;;;15.02;69.55;96630.63;4929101;28;20490;-67
2023/03/22 10:36:33;;;;;;;9.00;8.40;;;;;;;15.02;69.66;96627.94;4979854;28;20679;-67
2023/03/22 10:39:05;;;;;;;8.20;7.60;;;;;;;14.98;68.77;96634.78;4977408;28;20381;-67
2023/03/22 10:41:33;;;;;;;8.87;8.27;;;;;;;14.97;68.15;96625.16;4982393;28;20259;-67
2023/03/22 10:44:03;;;;;;;9.23;8.43;;;;;;;14.95;68.17;96615.72;4987240;28;20715;-67
2023/03/22 10:46:34;;;;;;;8.83;8.17;;;;;;;14.85;68.17;96624.25;4975985;28;20231;-68
2023/03/22 10:49:03;;;;;;;7.70;7.10;;;;;;;15.07;68.29;96621.91;4921762;28;20609;-68
2023/03/22 10:51:34;;;;;;;7.20;6.60;;;;;;;15.20;67.28;96631.59;4981420;28;20911;-67
2023/03/22 10:54:02;;;;;;;6.87;6.37;;;;;;;15.15;65.69;96610.13;4981698;28;20213;-67
2023/03/22 10:56:29;;;;;;;7.03;6.43;;;;;;;15.21;65.35;96614.53;4981369;28;21114;-66
2023/03/22 10:58:57;;;;;;;6.87;6.33;;;;;;;15.34;64.47;96617.03;4975313;28;20439;-68
2023/03/22 11:01:30;;;;;;;5.17;4.73;;;;;;;15.59;64.33;96608.00;4978619;28;20230;-67
2023/03/22 11:03:59;;;;;;;4.57;4.27;;;;;;;15.53;61.12;96603.59;4972873;28;20667;-67
2023/03/22 11:06:31;;;;;;;7.87;4.30;;;;;;;15.61;59.02;96600.56;4926802;28;20254;-67
2023/03/22 11:09:01;;;;;;;3.83;3.53;;;;;;;15.58;59.84;96606.38;4980787;28;20247;-65
2023/03/22 11:11:30;;;;;;;4.90;3.93;;;;;;;15.67;59.87;96606.03;4980769;28;20216;-67
2023/03/22 11:14:04;;;;;;;4.00;3.70;;;;;;;15.59;57.01;96605.34;4983010;28;20627;-66
2023/03/22 11:16:42;;;;;;;3.17;3.00;;;;;;;15.67;56.49;96603.38;4979223;28;20219;-66
2023/03/22 11:19:14;;;;;;;3.30;3.10;;;;;;;15.63;56.32;96595.00;4982286;28;20567;-66
2023/03/22 11:21:42;;;;;;;3.00;2.90;;;;;;;15.72;59.18;96582.94;4919651;28;20340;-67
2023/03/22 11:24:12;;;;;;;3.73;3.43;;;;;;;15.64;57.09;96583.28;4986055;28;20231;-65
2023/03/22 11:26:40;;;;;;;3.30;3.10;;;;;;;15.58;58.10;96578.88;4977904;28;20594;-66
2023/03/22 11:29:16;;;;;;;3.60;3.30;;;;;;;15.74;60.30;96577.38;4978711;28;20824;-67
2023/03/22 11:31:59;;;;;;;2.90;2.70;;;;;;;15.83;56.77;96577.81;4979924;28;20231;-66
2023/03/22 11:34:28;;;;;;;3.83;3.10;;;;;;;15.88;57.14;96578.78;4980964;28;20453;-66
2023/03/22 11:37:00;;;;;;;3.60;3.40;;;;;;;15.88;57.55;96564.59;4925014;28;20228;-65
2023/03/22 11:39:29;;;;;;;3.70;3.50;;;;;;;15.98;56.62;96577.38;4980223;28;20566;-67
2023/03/22 11:42:00;;;;;;;3.43;3.23;;;;;;;16.06;55.70;96569.84;4980768;28;20201;-67